sensor_id;sensor_type;location;lat;lon;timestamp;pressure;altitude;pressure_sealevel;temperature;humidity
5877;BME280;2964;42.144;24.730;2023-12-20T00:02:04;142054.16;;;1.71;100.00
5877;BME280;2964;42.144;24.730;2023-12-20T00:04:31;142070.38;;;1.78;100.00
5877;BME280;2964;42.144;24.730;2023-12-20T00:06:57;142066.66;;;1.77;100.00
5877;BME280;2964;42.144;24.730;2023-12-20T00:09:24;142069.16;;;1.78;100.00
5877;BME280;2964;42.144;24.730;2023-12-20T00:11:51;142074.13;;;1.80;100.00
5877;BME280;2964;42.144;24.730;2023-12-20T00:14:17;142079.13;;;1.82;100.00
5877;BME280;2964;42.144;24.730;2023-12-20T00:16:45;142148.97;;;2.10;100.00
5877;BME280;2964;42.144;24.730;2023-12-20T00:19:12;142173.88;;;2.21;100.00
5877;BME280;2964;42.144;24.730;2023-12-20T00:21:39;142107.78;;;1.93;100.00
5877;BME280;2964;42.144;24.730;2023-12-20T00:24:06;142091.59;;;1.87;100.00
5877;BME280;2964;42.144;24.730;2023-12-20T00:26:33;142084.09;;;1.84;100.00
5877;BME280;2964;42.144;24.730;2023-12-20T00:28:59;142060.44;;;1.74;100.00
5877;BME280;2964;42.144;24.730;2023-12-20T00:31:26;142038.00;;;1.65;100.00
5877;BME280;2964;42.144;24.730;2023-12-20T00:33:54;141877.22;;;0.99;100.00
5877;BME280;2964;42.144;24.730;2023-12-20T00:36:21;141978.13;;;1.40;100.00
5877;BME280;2964;42.144;24.730;2023-12-20T00:38:48;141981.88;;;1.42;100.00
5877;BME280;2964;42.144;24.730;2023-12-20T00:41:15;141956.97;;;1.31;100.00
5877;BME280;2964;42.144;24.730;2023-12-20T00:43:42;141959.44;;;1.32;100.00
5877;BME280;2964;42.144;24.730;2023-12-20T00:46:09;141969.44;;;1.37;100.00
5877;BME280;2964;42.144;24.730;2023-12-20T00:48:36;141958.22;;;1.32;100.00
5877;BME280;2964;42.144;24.730;2023-12-20T00:51:04;141956.97;;;1.31;100.00
5877;BME280;2964;42.144;24.730;2023-12-20T00:53:31;141793.75;;;0.64;100.00
5877;BME280;2964;42.144;24.730;2023-12-20T00:55:57;141984.38;;;1.43;100.00
5877;BME280;2964;42.144;24.730;2023-12-20T00:58:25;141964.41;;;1.34;100.00
5877;BME280;2964;42.144;24.730;2023-12-20T01:00:52;141944.50;;;1.26;100.00
5877;BME280;2964;42.144;24.730;2023-12-20T01:03:19;141942.00;;;1.25;100.00
5877;BME280;2964;42.144;24.730;2023-12-20T01:05:45;141938.28;;;1.24;100.00
5877;BME280;2964;42.144;24.730;2023-12-20T01:08:13;141935.78;;;1.23;100.00
5877;BME280;2964;42.144;24.730;2023-12-20T01:10:40;141767.56;;;0.53;100.00
5877;BME280;2964;42.144;24.730;2023-12-20T01:13:07;142050.47;;;1.70;100.00
5877;BME280;2964;42.144;24.730;2023-12-20T01:15:34;141966.94;;;1.35;100.00
5877;BME280;2964;42.144;24.730;2023-12-20T01:18:01;141945.75;;;1.27;100.00
5877;BME280;2964;42.144;24.730;2023-12-20T01:20:27;141988.13;;;1.44;100.00
5877;BME280;2964;42.144;24.730;2023-12-20T01:22:54;141966.94;;;1.35;100.00
5877;BME280;2964;42.144;24.730;2023-12-20T01:25:22;141969.44;;;1.37;100.00
5877;BME280;2964;42.144;24.730;2023-12-20T01:27:49;141964.41;;;1.34;100.00
5877;BME280;2964;42.144;24.730;2023-12-20T01:30:16;141969.44;;;1.37;100.00
5877;BME280;2964;42.144;24.730;2023-12-20T01:32:43;142102.81;;;1.91;100.00
5877;BME280;2964;42.144;24.730;2023-12-20T01:35:09;142203.84;;;2.33;100.00
5877;BME280;2964;42.144;24.730;2023-12-20T01:37:37;142175.13;;;2.21;100.00
5877;BME280;2964;42.144;24.730;2023-12-20T01:40:05;141986.84;;;1.44;100.00
5877;BME280;2964;42.144;24.730;2023-12-20T01:42:33;142141.47;;;2.07;100.00
5877;BME280;2964;42.144;24.730;2023-12-20T01:45:00;142182.63;;;2.24;100.00
5877;BME280;2964;42.144;24.730;2023-12-20T01:47:26;142178.88;;;2.23;100.00
5877;BME280;2964;42.144;24.730;2023-12-20T01:49:53;142126.53;;;2.01;100.00
5877;BME280;2964;42.144;24.730;2023-12-20T01:52:22;142129.00;;;2.02;100.00
5877;BME280;2964;42.144;24.730;2023-12-20T01:54:50;142101.56;;;1.91;100.00
5877;BME280;2964;42.144;24.730;2023-12-20T01:57:17;142129.00;;;2.02;100.00
5877;BME280;2964;42.144;24.730;2023-12-20T01:59:46;142095.34;;;1.88;100.00
5877;BME280;2964;42.144;24.730;2023-12-20T02:02:13;142148.97;;;2.10;100.00
5877;BME280;2964;42.144;24.730;2023-12-20T02:04:40;141979.41;;;1.41;100.00
5877;BME280;2964;42.144;24.730;2023-12-20T02:07:07;142026.75;;;1.60;100.00
5877;BME280;2964;42.144;24.730;2023-12-20T02:09:35;141954.47;;;1.30;100.00
5877;BME280;2964;42.144;24.730;2023-12-20T02:12:03;141924.59;;;1.18;100.00
5877;BME280;2964;42.144;24.730;2023-12-20T02:14:30;141889.69;;;1.04;100.00
5877;BME280;2964;42.144;24.730;2023-12-20T02:16:58;141883.44;;;1.01;100.00
5877;BME280;2964;42.144;24.730;2023-12-20T02:19:25;141877.22;;;0.99;100.00
5877;BME280;2964;42.144;24.730;2023-12-20T02:22:06;141892.16;;;1.05;100.00
5877;BME280;2964;42.144;24.730;2023-12-20T02:24:33;142029.25;;;1.61;100.00
5877;BME280;2964;42.144;24.730;2023-12-20T02:27:00;141907.13;;;1.11;100.00
5877;BME280;2964;42.144;24.730;2023-12-20T02:29:26;141883.44;;;1.01;100.00
5877;BME280;2964;42.144;24.730;2023-12-20T02:31:53;141853.56;;;0.89;100.00
5877;BME280;2964;42.144;24.730;2023-12-20T02:34:20;141897.13;;;1.07;100.00
5877;BME280;2964;42.144;24.730;2023-12-20T02:36:47;141908.38;;;1.11;100.00
5877;BME280;2964;42.144;24.730;2023-12-20T02:39:15;141727.78;;;0.37;100.00
5877;BME280;2964;42.144;24.730;2023-12-20T02:41:42;141785.03;;;0.61;100.00
5877;BME280;2964;42.144;24.730;2023-12-20T02:44:08;141813.69;;;0.72;100.00
5877;BME280;2964;42.144;24.730;2023-12-20T02:46:35;141798.72;;;0.66;100.00
5877;BME280;2964;42.144;24.730;2023-12-20T02:49:02;141887.19;;;1.03;100.00
5877;BME280;2964;42.144;24.730;2023-12-20T02:51:28;141831.13;;;0.80;100.00
5877;BME280;2964;42.144;24.730;2023-12-20T02:53:55;141760.13;;;0.50;100.00
5877;BME280;2964;42.144;24.730;2023-12-20T02:56:23;141780.03;;;0.58;100.00
5877;BME280;2964;42.144;24.730;2023-12-20T02:58:50;141783.78;;;0.60;100.00
5877;BME280;2964;42.144;24.730;2023-12-20T03:01:16;141796.25;;;0.65;100.00
5877;BME280;2964;42.144;24.730;2023-12-20T03:03:43;141790.00;;;0.63;100.00
5877;BME280;2964;42.144;24.730;2023-12-20T03:06:09;141777.59;;;0.57;100.00
5877;BME280;2964;42.144;24.730;2023-12-20T03:08:35;141897.13;;;1.07;100.00
5877;BME280;2964;42.144;24.730;2023-12-20T03:11:02;141812.41;;;0.72;100.00
5877;BME280;2964;42.144;24.730;2023-12-20T03:13:30;141760.13;;;0.50;100.00
5877;BME280;2964;42.144;24.730;2023-12-20T03:15:57;141787.53;;;0.62;100.00
5877;BME280;2964;42.144;24.730;2023-12-20T03:18:24;141899.66;;;1.08;100.00
5877;BME280;2964;42.144;24.730;2023-12-20T03:20:50;141791.28;;;0.63;100.00
5877;BME280;2964;42.144;24.730;2023-12-20T03:23:18;141811.19;;;0.71;100.00
5877;BME280;2964;42.144;24.730;2023-12-20T03:25:44;141807.44;;;0.70;100.00
5877;BME280;2964;42.144;24.730;2023-12-20T03:28:11;141809.94;;;0.71;100.00
5877;BME280;2964;42.144;24.730;2023-12-20T03:30:42;141857.25;;;0.90;100.00
5877;BME280;2964;42.144;24.730;2023-12-20T03:33:08;141804.97;;;0.69;100.00
5877;BME280;2964;42.144;24.730;2023-12-20T03:35:35;141791.28;;;0.63;100.00
5877;BME280;2964;42.144;24.730;2023-12-20T03:38:02;141780.03;;;0.58;100.00
5877;BME280;2964;42.144;24.730;2023-12-20T03:40:29;141792.50;;;0.64;100.00
5877;BME280;2964;42.144;24.730;2023-12-20T03:42:55;141773.84;;;0.56;100.00
5877;BME280;2964;42.144;24.730;2023-12-20T03:45:22;141908.38;;;1.11;100.00
5877;BME280;2964;42.144;24.730;2023-12-20T03:47:50;141883.44;;;1.01;100.00
5877;BME280;2964;42.144;24.730;2023-12-20T03:50:20;141852.28;;;0.88;100.00
5877;BME280;2964;42.144;24.730;2023-12-20T03:52:47;141775.06;;;0.56;100.00
5877;BME280;2964;42.144;24.730;2023-12-20T03:55:13;141781.31;;;0.59;100.00
5877;BME280;2964;42.144;24.730;2023-12-20T03:57:40;141772.59;;;0.55;100.00
5877;BME280;2964;42.144;24.730;2023-12-20T04:00:08;141776.31;;;0.57;100.00
5877;BME280;2964;42.144;24.730;2023-12-20T04:02:35;141854.78;;;0.89;100.00
5877;BME280;2964;42.144;24.730;2023-12-20T04:05:04;141800.00;;;0.67;100.00
5877;BME280;2964;42.144;24.730;2023-12-20T04:07:31;141780.03;;;0.58;100.00
5877;BME280;2964;42.144;24.730;2023-12-20T04:09:58;141801.22;;;0.67;100.00
5877;BME280;2964;42.144;24.730;2023-12-20T04:12:26;141806.19;;;0.69;100.00
5877;BME280;2964;42.144;24.730;2023-12-20T04:14:52;141776.31;;;0.57;100.00
5877;BME280;2964;42.144;24.730;2023-12-20T04:17:19;141781.31;;;0.59;100.00
5877;BME280;2964;42.144;24.730;2023-12-20T04:19:48;141797.47;;;0.66;100.00
5877;BME280;2964;42.144;24.730;2023-12-20T04:22:17;141767.56;;;0.53;100.00
5877;BME280;2964;42.144;24.730;2023-12-20T04:24:44;141766.34;;;0.53;100.00
5877;BME280;2964;42.144;24.730;2023-12-20T04:27:10;141767.56;;;0.53;100.00
5877;BME280;2964;42.144;24.730;2023-12-20T04:29:37;141751.41;;;0.47;100.00
5877;BME280;2964;42.144;24.730;2023-12-20T04:32:04;141836.13;;;0.82;100.00
5877;BME280;2964;42.144;24.730;2023-12-20T04:34:31;141778.81;;;0.58;100.00
5877;BME280;2964;42.144;24.730;2023-12-20T04:36:58;141760.13;;;0.50;100.00
5877;BME280;2964;42.144;24.730;2023-12-20T04:39:26;141705.34;;;0.28;100.00
5877;BME280;2964;42.144;24.730;2023-12-20T04:41:52;141727.78;;;0.37;100.00
5877;BME280;2964;42.144;24.730;2023-12-20T04:44:19;141752.66;;;0.47;100.00
5877;BME280;2964;42.144;24.730;2023-12-20T04:46:46;141755.16;;;0.48;100.00
5877;BME280;2964;42.144;24.730;2023-12-20T04:49:12;141735.22;;;0.40;100.00
5877;BME280;2964;42.144;24.730;2023-12-20T04:51:39;141731.47;;;0.38;100.00
5877;BME280;2964;42.144;24.730;2023-12-20T04:54:06;141788.75;;;0.62;100.00
5877;BME280;2964;42.144;24.730;2023-12-20T04:56:34;141750.19;;;0.46;100.00
5877;BME280;2964;42.144;24.730;2023-12-20T04:59:00;141838.59;;;0.83;100.00
5877;BME280;2964;42.144;24.730;2023-12-20T05:01:27;141807.44;;;0.70;100.00
5877;BME280;2964;42.144;24.730;2023-12-20T05:03:54;141834.84;;;0.81;100.00
5877;BME280;2964;42.144;24.730;2023-12-20T05:06:21;141745.16;;;0.44;100.00
5877;BME280;2964;42.144;24.730;2023-12-20T05:08:47;141879.69;;;1.00;100.00
5877;BME280;2964;42.144;24.730;2023-12-20T05:11:14;141937.00;;;1.23;100.00
5877;BME280;2964;42.144;24.730;2023-12-20T05:13:42;141802.47;;;0.68;100.00
5877;BME280;2964;42.144;24.730;2023-12-20T05:16:09;141772.59;;;0.55;100.00
5877;BME280;2964;42.144;24.730;2023-12-20T05:18:36;141757.63;;;0.49;100.00
5877;BME280;2964;42.144;24.730;2023-12-20T05:21:03;141717.78;;;0.33;100.00
5877;BME280;2964;42.144;24.730;2023-12-20T05:23:30;141747.69;;;0.45;100.00
5877;BME280;2964;42.144;24.730;2023-12-20T05:25:56;141722.75;;;0.35;100.00
5877;BME280;2964;42.144;24.730;2023-12-20T05:28:24;141702.84;;;0.27;100.00
5877;BME280;2964;42.144;24.730;2023-12-20T05:30:52;141722.75;;;0.35;100.00
5877;BME280;2964;42.144;24.730;2023-12-20T05:33:19;141725.25;;;0.36;100.00
5877;BME280;2964;42.144;24.730;2023-12-20T05:35:46;141710.34;;;0.30;100.00
5877;BME280;2964;42.144;24.730;2023-12-20T05:38:13;141770.09;;;0.54;100.00
5877;BME280;2964;42.144;24.730;2023-12-20T05:40:39;141762.59;;;0.51;100.00
5877;BME280;2964;42.144;24.730;2023-12-20T05:43:06;141716.53;;;0.32;100.00
5877;BME280;2964;42.144;24.730;2023-12-20T05:45:33;141717.78;;;0.33;100.00
5877;BME280;2964;42.144;24.730;2023-12-20T05:48:01;141720.28;;;0.34;100.00
5877;BME280;2964;42.144;24.730;2023-12-20T05:50:28;141720.28;;;0.34;100.00
5877;BME280;2964;42.144;24.730;2023-12-20T05:52:54;141773.84;;;0.56;100.00
5877;BME280;2964;42.144;24.730;2023-12-20T05:55:21;141736.44;;;0.41;100.00
5877;BME280;2964;42.144;24.730;2023-12-20T05:57:48;141852.28;;;0.88;100.00
5877;BME280;2964;42.144;24.730;2023-12-20T06:00:16;141912.13;;;1.13;100.00
5877;BME280;2964;42.144;24.730;2023-12-20T06:02:43;141849.81;;;0.87;100.00
5877;BME280;2964;42.144;24.730;2023-12-20T06:05:11;141961.94;;;1.33;100.00
5877;BME280;2964;42.144;24.730;2023-12-20T06:07:38;141842.31;;;0.84;100.00
5877;BME280;2964;42.144;24.730;2023-12-20T06:10:05;141876.00;;;0.98;100.00
5877;BME280;2964;42.144;24.730;2023-12-20T06:12:32;141876.00;;;0.98;100.00
5877;BME280;2964;42.144;24.730;2023-12-20T06:15:01;141851.06;;;0.88;100.00
5877;BME280;2964;42.144;24.730;2023-12-20T06:17:28;142045.47;;;1.68;100.00
5877;BME280;2964;42.144;24.730;2023-12-20T06:19:56;141859.78;;;0.91;100.00
5877;BME280;2964;42.144;24.730;2023-12-20T06:22:24;141801.22;;;0.67;100.00
5877;BME280;2964;42.144;24.730;2023-12-20T06:24:50;141887.19;;;1.03;100.00
5877;BME280;2964;42.144;24.730;2023-12-20T06:27:17;141880.97;;;1.00;100.00
5877;BME280;2964;42.144;24.730;2023-12-20T06:29:44;141991.88;;;1.46;100.00
5877;BME280;2964;42.144;24.730;2023-12-20T06:32:10;141879.69;;;1.00;100.00
5877;BME280;2964;42.144;24.730;2023-12-20T06:34:37;141892.16;;;1.05;100.00
5877;BME280;2964;42.144;24.730;2023-12-20T06:37:04;141902.16;;;1.09;100.00
5877;BME280;2964;42.144;24.730;2023-12-20T06:39:32;141857.25;;;0.90;100.00
5877;BME280;2964;42.144;24.730;2023-12-20T06:41:59;141975.66;;;1.39;100.00
5877;BME280;2964;42.144;24.730;2023-12-20T06:44:26;141963.19;;;1.34;100.00
5877;BME280;2964;42.144;24.730;2023-12-20T06:46:53;141980.63;;;1.41;100.00
5877;BME280;2964;42.144;24.730;2023-12-20T06:49:19;141929.56;;;1.20;100.00
5877;BME280;2964;42.144;24.730;2023-12-20T06:51:46;141942.00;;;1.25;100.00
5877;BME280;2964;42.144;24.730;2023-12-20T06:54:13;141973.16;;;1.38;100.00
5877;BME280;2964;42.144;24.730;2023-12-20T06:56:41;141974.44;;;1.39;100.00
5877;BME280;2964;42.144;24.730;2023-12-20T06:59:07;141996.84;;;1.48;100.00
5877;BME280;2964;42.144;24.730;2023-12-20T07:01:34;142050.47;;;1.70;100.00
5877;BME280;2964;42.144;24.730;2023-12-20T07:04:01;142066.66;;;1.77;100.00
5877;BME280;2964;42.144;24.730;2023-12-20T07:06:27;142040.47;;;1.66;100.00
5877;BME280;2964;42.144;24.730;2023-12-20T07:08:54;142061.66;;;1.74;100.00
5877;BME280;2964;42.144;24.730;2023-12-20T07:11:21;142096.59;;;1.89;100.00
5877;BME280;2964;42.144;24.730;2023-12-20T07:13:49;142116.50;;;1.97;100.00
5877;BME280;2964;42.144;24.730;2023-12-20T07:16:16;142166.44;;;2.18;100.00
5877;BME280;2964;42.144;24.730;2023-12-20T07:18:43;142153.94;;;2.12;100.00
5877;BME280;2964;42.144;24.730;2023-12-20T07:21:09;142269.97;;;2.60;100.00
5877;BME280;2964;42.144;24.730;2023-12-20T07:23:36;142269.97;;;2.60;100.00
5877;BME280;2964;42.144;24.730;2023-12-20T07:26:03;142266.22;;;2.59;100.00
5877;BME280;2964;42.144;24.730;2023-12-20T07:28:30;142282.41;;;2.65;100.00
5877;BME280;2964;42.144;24.730;2023-12-20T07:30:58;142288.69;;;2.68;100.00
5877;BME280;2964;42.144;24.730;2023-12-20T07:33:25;142377.28;;;3.04;100.00
5877;BME280;2964;42.144;24.730;2023-12-20T07:35:51;142587.03;;;3.91;100.00
5877;BME280;2964;42.144;24.730;2023-12-20T07:38:18;142640.75;;;4.13;100.00
5877;BME280;2964;42.144;24.730;2023-12-20T07:40:45;142619.53;;;4.04;100.00
5877;BME280;2964;42.144;24.730;2023-12-20T07:43:11;142753.22;;;4.59;100.00
5877;BME280;2964;42.144;24.730;2023-12-20T07:45:38;142766.94;;;4.64;100.00
5877;BME280;2964;42.144;24.730;2023-12-20T07:48:07;142776.97;;;4.69;100.00
5877;BME280;2964;42.144;24.730;2023-12-20T07:50:34;142775.69;;;4.68;100.00
5877;BME280;2964;42.144;24.730;2023-12-20T07:53:02;142830.75;;;4.91;100.00
5877;BME280;2964;42.144;24.730;2023-12-20T07:55:29;142840.72;;;4.95;98.68
5877;BME280;2964;42.144;24.730;2023-12-20T07:57:57;142885.75;;;5.13;99.14
5877;BME280;2964;42.144;24.730;2023-12-20T08:00:23;142903.25;;;5.20;97.45
5877;BME280;2964;42.144;24.730;2023-12-20T08:02:50;142805.72;;;4.80;98.55
5877;BME280;2964;42.144;24.730;2023-12-20T08:05:18;142809.47;;;4.82;99.47
5877;BME280;2964;42.144;24.730;2023-12-20T08:07:45;142790.72;;;4.74;99.30
5877;BME280;2964;42.144;24.730;2023-12-20T08:10:12;142770.72;;;4.66;100.00
5877;BME280;2964;42.144;24.730;2023-12-20T08:12:39;142667.00;;;4.23;100.00
5877;BME280;2964;42.144;24.730;2023-12-20T08:15:06;142630.75;;;4.09;100.00
5877;BME280;2964;42.144;24.730;2023-12-20T08:17:34;142778.22;;;4.69;100.00
5877;BME280;2964;42.144;24.730;2023-12-20T08:20:01;142844.50;;;4.96;100.00
5877;BME280;2964;42.144;24.730;2023-12-20T08:22:29;142853.25;;;5.00;98.74
5877;BME280;2964;42.144;24.730;2023-12-20T08:24:56;142935.75;;;5.34;98.69
5877;BME280;2964;42.144;24.730;2023-12-20T08:27:22;142989.53;;;5.56;97.77
5877;BME280;2964;42.144;24.730;2023-12-20T08:29:51;143118.47;;;6.09;96.31
5877;BME280;2964;42.144;24.730;2023-12-20T08:32:17;143098.44;;;6.01;95.94
5877;BME280;2964;42.144;24.730;2023-12-20T08:34:44;143188.53;;;6.37;94.90
5877;BME280;2964;42.144;24.730;2023-12-20T08:37:11;143147.25;;;6.21;95.41
5877;BME280;2964;42.144;24.730;2023-12-20T08:39:39;143296.22;;;6.82;94.69
5877;BME280;2964;42.144;24.730;2023-12-20T08:42:06;143391.38;;;7.21;91.68
5877;BME280;2964;42.144;24.730;2023-12-20T08:44:32;143292.44;;;6.80;92.81
5877;BME280;2964;42.144;24.730;2023-12-20T08:46:59;143239.88;;;6.59;92.32
5877;BME280;2964;42.144;24.730;2023-12-20T08:49:26;143135.94;;;6.16;95.01
5877;BME280;2964;42.144;24.730;2023-12-20T08:51:53;143123.47;;;6.11;94.75
5877;BME280;2964;42.144;24.730;2023-12-20T08:54:20;143128.47;;;6.13;96.49
5877;BME280;2964;42.144;24.730;2023-12-20T08:56:48;143093.44;;;5.98;95.13
5877;BME280;2964;42.144;24.730;2023-12-20T08:59:17;143054.56;;;5.83;96.51
5877;BME280;2964;42.144;24.730;2023-12-20T09:01:44;143098.44;;;6.01;96.04
5877;BME280;2964;42.144;24.730;2023-12-20T09:04:11;143128.47;;;6.13;95.27
5877;BME280;2964;42.144;24.730;2023-12-20T09:06:38;143256.13;;;6.65;94.60
5877;BME280;2964;42.144;24.730;2023-12-20T09:09:05;143423.94;;;7.34;94.10
5877;BME280;2964;42.144;24.730;2023-12-20T09:11:33;143377.59;;;7.15;90.75
5877;BME280;2964;42.144;24.730;2023-12-20T09:14:02;143621.94;;;8.15;89.45
5877;BME280;2964;42.144;24.730;2023-12-20T09:16:28;143845.25;;;9.06;86.77
5877;BME280;2964;42.144;24.730;2023-12-20T09:18:56;144284.69;;;10.86;79.04
5877;BME280;2964;42.144;24.730;2023-12-20T09:21:23;144216.84;;;10.58;75.87
5877;BME280;2964;42.144;24.730;2023-12-20T09:23:50;144025.94;;;9.80;76.59
5877;BME280;2964;42.144;24.730;2023-12-20T09:26:17;144068.66;;;9.98;79.28
5877;BME280;2964;42.144;24.730;2023-12-20T09:28:44;144627.91;;;12.26;69.71
5877;BME280;2964;42.144;24.730;2023-12-20T09:31:12;145030.69;;;13.90;64.85
5877;BME280;2964;42.144;24.730;2023-12-20T09:33:38;145243.69;;;14.77;62.69
5877;BME280;2964;42.144;24.730;2023-12-20T09:36:06;145345.75;;;15.19;60.66
5877;BME280;2964;42.144;24.730;2023-12-20T09:38:32;146119.59;;;18.33;52.14
5877;BME280;2964;42.144;24.730;2023-12-20T09:41:00;146664.72;;;20.55;41.41
5877;BME280;2964;42.144;24.730;2023-12-20T09:43:30;146649.50;;;20.49;39.55
5877;BME280;2964;42.144;24.730;2023-12-20T09:46:00;147248.75;;;22.91;33.39
5877;BME280;2964;42.144;24.730;2023-12-20T09:48:31;147045.91;;;22.09;32.89
5877;BME280;2964;42.144;24.730;2023-12-20T09:50:58;146431.84;;;19.60;36.82
5877;BME280;2964;42.144;24.730;2023-12-20T09:53:25;146172.63;;;18.55;38.88
5877;BME280;2964;42.144;24.730;2023-12-20T09:55:57;146004.59;;;17.87;40.33
5877;BME280;2964;42.144;24.730;2023-12-20T09:58:24;146324.38;;;19.17;38.41
5877;BME280;2964;42.144;24.730;2023-12-20T10:00:51;145320.53;;;15.09;45.77
5877;BME280;2964;42.144;24.730;2023-12-20T10:03:23;145058.44;;;14.02;48.86
5877;BME280;2964;42.144;24.730;2023-12-20T10:05:52;144307.28;;;10.95;57.60
5877;BME280;2964;42.144;24.730;2023-12-20T10:08:21;144012.13;;;9.75;65.84
5877;BME280;2964;42.144;24.730;2023-12-20T10:10:48;143969.47;;;9.57;68.33
5877;BME280;2964;42.144;24.730;2023-12-20T10:13:15;143976.97;;;9.60;67.71
5877;BME280;2964;42.144;24.730;2023-12-20T10:15:42;143944.38;;;9.47;69.93
5877;BME280;2964;42.144;24.730;2023-12-20T10:18:09;143776.25;;;8.78;73.82
5877;BME280;2964;42.144;24.730;2023-12-20T10:20:36;143604.44;;;8.08;76.61
5877;BME280;2964;42.144;24.730;2023-12-20T10:23:04;143634.50;;;8.20;77.45
5877;BME280;2964;42.144;24.730;2023-12-20T10:25:31;143815.13;;;8.94;74.58
5877;BME280;2964;42.144;24.730;2023-12-20T10:28:13;143803.84;;;8.89;73.43
5877;BME280;2964;42.144;24.730;2023-12-20T10:30:41;143825.19;;;8.98;73.46
5877;BME280;2964;42.144;24.730;2023-12-20T10:33:08;143810.09;;;8.92;74.11
5877;BME280;2964;42.144;24.730;2023-12-20T10:35:35;143767.47;;;8.75;75.58
5877;BME280;2964;42.144;24.730;2023-12-20T10:38:05;143759.94;;;8.72;75.31
5877;BME280;2964;42.144;24.730;2023-12-20T10:40:34;143737.38;;;8.62;75.65
5877;BME280;2964;42.144;24.730;2023-12-20T10:43:03;143733.59;;;8.61;77.25
5877;BME280;2964;42.144;24.730;2023-12-20T10:45:30;143896.66;;;9.27;74.33
5877;BME280;2964;42.144;24.730;2023-12-20T10:47:58;143925.53;;;9.39;73.52
5877;BME280;2964;42.144;24.730;2023-12-20T10:50:26;143758.69;;;8.71;74.66
5877;BME280;2964;42.144;24.730;2023-12-20T10:52:54;143841.47;;;9.05;75.71
5877;BME280;2964;42.144;24.730;2023-12-20T10:55:23;143884.16;;;9.22;73.25
5877;BME280;2964;42.144;24.730;2023-12-20T10:57:50;143822.66;;;8.97;73.53
5877;BME280;2964;42.144;24.730;2023-12-20T11:00:18;143970.72;;;9.58;71.23
5877;BME280;2964;42.144;24.730;2023-12-20T11:02:45;143895.41;;;9.27;72.67
5877;BME280;2964;42.144;24.730;2023-12-20T11:05:22;143989.53;;;9.65;71.02
5877;BME280;2964;42.144;24.730;2023-12-20T11:07:54;143899.19;;;9.28;71.63
5877;BME280;2964;42.144;24.730;2023-12-20T11:10:28;143974.50;;;9.59;70.08
5877;BME280;2964;42.144;24.730;2023-12-20T11:13:00;144007.13;;;9.73;68.06
5877;BME280;2964;42.144;24.730;2023-12-20T11:15:30;144030.97;;;9.82;68.98
5877;BME280;2964;42.144;24.730;2023-12-20T11:17:57;144078.69;;;10.02;68.16
5877;BME280;2964;42.144;24.730;2023-12-20T11:20:35;143980.75;;;9.62;69.79
5877;BME280;2964;42.144;24.730;2023-12-20T11:23:02;144008.38;;;9.73;69.59
5877;BME280;2964;42.144;24.730;2023-12-20T11:25:46;144028.47;;;9.81;67.89
5877;BME280;2964;42.144;24.730;2023-12-20T11:28:13;143999.56;;;9.70;67.78
5877;BME280;2964;42.144;24.730;2023-12-20T11:30:45;144152.81;;;10.32;66.17
5877;BME280;2964;42.144;24.730;2023-12-20T11:33:13;144064.88;;;9.96;67.89
5877;BME280;2964;42.144;24.730;2023-12-20T11:35:40;144073.66;;;10.00;67.26
5877;BME280;2964;42.144;24.730;2023-12-20T11:38:08;144086.19;;;10.05;66.71
5877;BME280;2964;42.144;24.730;2023-12-20T11:40:36;144078.69;;;10.02;65.11
5877;BME280;2964;42.144;24.730;2023-12-20T11:43:03;144017.16;;;9.77;65.55
5877;BME280;2964;42.144;24.730;2023-12-20T11:45:31;144037.25;;;9.85;64.56
5877;BME280;2964;42.144;24.730;2023-12-20T11:47:58;144039.75;;;9.86;64.48
5877;BME280;2964;42.144;24.730;2023-12-20T11:50:24;143992.06;;;9.66;64.19
5877;BME280;2964;42.144;24.730;2023-12-20T11:52:52;144051.06;;;9.91;63.65
5877;BME280;2964;42.144;24.730;2023-12-20T11:55:19;143970.72;;;9.58;63.90
5877;BME280;2964;42.144;24.730;2023-12-20T11:57:47;144042.28;;;9.87;63.70
5877;BME280;2964;42.144;24.730;2023-12-20T12:00:14;144113.84;;;10.16;62.64
5877;BME280;2964;42.144;24.730;2023-12-20T12:02:41;144066.13;;;9.97;62.34
5877;BME280;2964;42.144;24.730;2023-12-20T12:05:08;144073.66;;;10.00;62.28
5877;BME280;2964;42.144;24.730;2023-12-20T12:07:35;144112.56;;;10.16;61.75
5877;BME280;2964;42.144;24.730;2023-12-20T12:10:03;144140.19;;;10.27;60.96
5877;BME280;2964;42.144;24.730;2023-12-20T12:12:29;144008.38;;;9.73;63.38
5877;BME280;2964;42.144;24.730;2023-12-20T12:14:59;144041.00;;;9.86;63.23
5877;BME280;2964;42.144;24.730;2023-12-20T12:17:25;144000.88;;;9.70;63.93
5877;BME280;2964;42.144;24.730;2023-12-20T12:20:02;144056.09;;;9.93;62.92
5877;BME280;2964;42.144;24.730;2023-12-20T12:22:29;144032.19;;;9.83;62.93
5877;BME280;2964;42.144;24.730;2023-12-20T12:24:59;143914.22;;;9.35;64.14
5877;BME280;2964;42.144;24.730;2023-12-20T12:27:27;143955.69;;;9.52;64.66
5877;BME280;2964;42.144;24.730;2023-12-20T12:30:02;143963.19;;;9.55;64.52
5877;BME280;2964;42.144;24.730;2023-12-20T12:32:30;143999.56;;;9.70;64.49
5877;BME280;2964;42.144;24.730;2023-12-20T12:34:57;144008.38;;;9.73;64.76
5877;BME280;2964;42.144;24.730;2023-12-20T12:37:24;144087.47;;;10.05;63.48
5877;BME280;2964;42.144;24.730;2023-12-20T12:39:53;144093.75;;;10.08;63.40
5877;BME280;2964;42.144;24.730;2023-12-20T12:42:19;144056.09;;;9.93;64.16
5877;BME280;2964;42.144;24.730;2023-12-20T12:44:47;144063.59;;;9.96;63.72
5877;BME280;2964;42.144;24.730;2023-12-20T12:47:15;144051.06;;;9.91;64.45
5877;BME280;2964;42.144;24.730;2023-12-20T12:49:41;144018.41;;;9.77;64.12
5877;BME280;2964;42.144;24.730;2023-12-20T12:52:08;144041.00;;;9.86;63.88
5877;BME280;2964;42.144;24.730;2023-12-20T12:54:35;144053.56;;;9.92;65.19
5877;BME280;2964;42.144;24.730;2023-12-20T12:57:02;144074.91;;;10.00;64.94
5877;BME280;2964;42.144;24.730;2023-12-20T12:59:28;144112.56;;;10.16;64.59
5877;BME280;2964;42.144;24.730;2023-12-20T13:01:55;144038.50;;;9.85;64.71
5877;BME280;2964;42.144;24.730;2023-12-20T13:04:23;144154.03;;;10.33;64.73